sensor_id;sensor_type;location;lat;lon;timestamp;P1;durP1;ratioP1;P2;durP2;ratioP2
77880;SDS011;67077;50.298;18.996;2023-07-31T00:02:21;5.00;;;3.80;;
77880;SDS011;67077;50.298;18.996;2023-07-31T00:04:48;5.90;;;4.10;;
77880;SDS011;67077;50.298;18.996;2023-07-31T00:07:15;6.40;;;4.10;;
77880;SDS011;67077;50.298;18.996;2023-07-31T00:09:41;6.20;;;3.90;;
77880;SDS011;67077;50.298;18.996;2023-07-31T00:12:08;6.30;;;3.90;;
77880;SDS011;67077;50.298;18.996;2023-07-31T00:14:35;5.10;;;4.00;;
77880;SDS011;67077;50.298;18.996;2023-07-31T00:17:01;5.70;;;3.80;;
77880;SDS011;67077;50.298;18.996;2023-07-31T00:19:28;5.40;;;3.60;;
77880;SDS011;67077;50.298;18.996;2023-07-31T00:21:54;6.00;;;3.60;;
77880;SDS011;67077;50.298;18.996;2023-07-31T00:24:21;9.40;;;4.10;;
77880;SDS011;67077;50.298;18.996;2023-07-31T00:26:47;5.60;;;3.90;;
77880;SDS011;67077;50.298;18.996;2023-07-31T00:29:14;5.60;;;3.50;;
77880;SDS011;67077;50.298;18.996;2023-07-31T00:31:40;6.40;;;3.40;;
77880;SDS011;67077;50.298;18.996;2023-07-31T00:34:07;5.10;;;3.40;;
77880;SDS011;67077;50.298;18.996;2023-07-31T00:36:33;5.00;;;3.60;;
77880;SDS011;67077;50.298;18.996;2023-07-31T00:39:00;4.70;;;3.70;;
77880;SDS011;67077;50.298;18.996;2023-07-31T00:41:26;4.30;;;3.40;;
77880;SDS011;67077;50.298;18.996;2023-07-31T00:43:53;5.60;;;3.10;;
77880;SDS011;67077;50.298;18.996;2023-07-31T00:46:19;5.20;;;3.70;;
77880;SDS011;67077;50.298;18.996;2023-07-31T00:48:46;6.50;;;3.90;;
77880;SDS011;67077;50.298;18.996;2023-07-31T00:51:13;9.80;;;3.90;;
77880;SDS011;67077;50.298;18.996;2023-07-31T00:53:40;5.70;;;3.80;;
77880;SDS011;67077;50.298;18.996;2023-07-31T00:56:07;7.00;;;3.60;;
77880;SDS011;67077;50.298;18.996;2023-07-31T00:58:34;6.50;;;3.20;;
77880;SDS011;67077;50.298;18.996;2023-07-31T01:01:01;7.20;;;3.40;;
77880;SDS011;67077;50.298;18.996;2023-07-31T01:03:28;5.30;;;3.60;;
77880;SDS011;67077;50.298;18.996;2023-07-31T01:09:00;8.40;;;3.30;;
77880;SDS011;67077;50.298;18.996;2023-07-31T01:11:31;7.60;;;4.70;;
77880;SDS011;67077;50.298;18.996;2023-07-31T01:14:01;6.50;;;4.00;;
77880;SDS011;67077;50.298;18.996;2023-07-31T01:16:28;6.50;;;3.60;;
77880;SDS011;67077;50.298;18.996;2023-07-31T01:18:54;8.80;;;3.60;;
77880;SDS011;67077;50.298;18.996;2023-07-31T01:24:20;9.80;;;3.80;;
77880;SDS011;67077;50.298;18.996;2023-07-31T01:27:02;8.30;;;3.70;;
77880;SDS011;67077;50.298;18.996;2023-07-31T01:29:40;6.80;;;3.50;;
77880;SDS011;67077;50.298;18.996;2023-07-31T01:32:15;6.40;;;3.40;;
77880;SDS011;67077;50.298;18.996;2023-07-31T01:34:44;5.00;;;3.30;;
77880;SDS011;67077;50.298;18.996;2023-07-31T01:37:11;7.20;;;3.20;;
77880;SDS011;67077;50.298;18.996;2023-07-31T01:39:38;9.50;;;5.10;;
77880;SDS011;67077;50.298;18.996;2023-07-31T01:42:04;8.20;;;4.60;;
77880;SDS011;67077;50.298;18.996;2023-07-31T01:44:31;10.20;;;4.20;;
77880;SDS011;67077;50.298;18.996;2023-07-31T01:46:58;9.50;;;4.10;;
77880;SDS011;67077;50.298;18.996;2023-07-31T01:49:26;11.20;;;4.10;;
77880;SDS011;67077;50.298;18.996;2023-07-31T01:51:53;8.80;;;4.20;;
77880;SDS011;67077;50.298;18.996;2023-07-31T01:54:19;7.00;;;4.20;;
77880;SDS011;67077;50.298;18.996;2023-07-31T01:56:46;5.30;;;3.80;;
77880;SDS011;67077;50.298;18.996;2023-07-31T01:59:12;14.90;;;11.60;;
77880;SDS011;67077;50.298;18.996;2023-07-31T02:01:39;11.60;;;6.90;;
77880;SDS011;67077;50.298;18.996;2023-07-31T02:04:05;8.10;;;4.80;;
77880;SDS011;67077;50.298;18.996;2023-07-31T02:06:32;9.60;;;4.60;;
77880;SDS011;67077;50.298;18.996;2023-07-31T02:08:59;5.70;;;3.90;;
77880;SDS011;67077;50.298;18.996;2023-07-31T02:11:25;7.10;;;4.30;;
77880;SDS011;67077;50.298;18.996;2023-07-31T02:13:52;6.80;;;5.50;;
77880;SDS011;67077;50.298;18.996;2023-07-31T02:16:18;9.40;;;5.10;;
77880;SDS011;67077;50.298;18.996;2023-07-31T02:18:45;10.70;;;7.50;;
77880;SDS011;67077;50.298;18.996;2023-07-31T02:21:11;10.40;;;7.20;;
77880;SDS011;67077;50.298;18.996;2023-07-31T02:23:37;8.50;;;5.80;;
77880;SDS011;67077;50.298;18.996;2023-07-31T02:26:04;9.00;;;5.50;;
77880;SDS011;67077;50.298;18.996;2023-07-31T02:28:30;14.90;;;9.20;;
77880;SDS011;67077;50.298;18.996;2023-07-31T02:30:57;14.40;;;7.40;;
77880;SDS011;67077;50.298;18.996;2023-07-31T02:33:23;8.80;;;5.30;;
77880;SDS011;67077;50.298;18.996;2023-07-31T02:35:50;10.60;;;5.70;;
77880;SDS011;67077;50.298;18.996;2023-07-31T02:38:16;12.20;;;8.20;;
77880;SDS011;67077;50.298;18.996;2023-07-31T02:40:43;10.20;;;5.80;;
77880;SDS011;67077;50.298;18.996;2023-07-31T02:43:09;8.60;;;6.40;;
77880;SDS011;67077;50.298;18.996;2023-07-31T02:45:36;9.30;;;6.30;;
77880;SDS011;67077;50.298;18.996;2023-07-31T02:48:02;12.10;;;8.00;;
77880;SDS011;67077;50.298;18.996;2023-07-31T02:50:29;20.50;;;12.70;;
77880;SDS011;67077;50.298;18.996;2023-07-31T02:52:56;14.50;;;9.80;;
77880;SDS011;67077;50.298;18.996;2023-07-31T02:55:22;15.00;;;8.90;;
77880;SDS011;67077;50.298;18.996;2023-07-31T02:57:49;17.10;;;8.40;;
77880;SDS011;67077;50.298;18.996;2023-07-31T03:00:15;13.80;;;8.20;;
77880;SDS011;67077;50.298;18.996;2023-07-31T03:02:42;18.40;;;8.20;;
77880;SDS011;67077;50.298;18.996;2023-07-31T03:05:08;12.70;;;7.50;;
77880;SDS011;67077;50.298;18.996;2023-07-31T03:07:35;13.10;;;9.90;;
77880;SDS011;67077;50.298;18.996;2023-07-31T03:10:01;15.80;;;12.20;;
77880;SDS011;67077;50.298;18.996;2023-07-31T03:12:28;15.60;;;11.40;;
77880;SDS011;67077;50.298;18.996;2023-07-31T03:14:55;11.70;;;8.60;;
77880;SDS011;67077;50.298;18.996;2023-07-31T03:17:21;12.90;;;8.50;;
77880;SDS011;67077;50.298;18.996;2023-07-31T03:19:48;15.00;;;11.60;;
77880;SDS011;67077;50.298;18.996;2023-07-31T03:22:16;13.40;;;11.30;;
77880;SDS011;67077;50.298;18.996;2023-07-31T03:24:42;17.90;;;12.10;;
77880;SDS011;67077;50.298;18.996;2023-07-31T03:27:09;16.00;;;10.50;;
77880;SDS011;67077;50.298;18.996;2023-07-31T03:29:35;13.90;;;10.30;;
77880;SDS011;67077;50.298;18.996;2023-07-31T03:32:01;13.60;;;9.60;;
77880;SDS011;67077;50.298;18.996;2023-07-31T03:34:28;13.90;;;7.20;;
77880;SDS011;67077;50.298;18.996;2023-07-31T03:36:55;9.10;;;6.60;;
77880;SDS011;67077;50.298;18.996;2023-07-31T03:39:21;10.50;;;5.40;;
77880;SDS011;67077;50.298;18.996;2023-07-31T03:41:48;7.80;;;4.80;;
77880;SDS011;67077;50.298;18.996;2023-07-31T03:44:14;9.90;;;4.50;;
77880;SDS011;67077;50.298;18.996;2023-07-31T03:46:41;8.00;;;4.40;;
77880;SDS011;67077;50.298;18.996;2023-07-31T03:49:07;7.10;;;4.20;;
77880;SDS011;67077;50.298;18.996;2023-07-31T03:51:34;6.90;;;4.20;;
77880;SDS011;67077;50.298;18.996;2023-07-31T03:54:00;6.80;;;4.00;;
77880;SDS011;67077;50.298;18.996;2023-07-31T03:56:27;7.70;;;4.10;;
77880;SDS011;67077;50.298;18.996;2023-07-31T03:58:53;7.40;;;3.90;;
77880;SDS011;67077;50.298;18.996;2023-07-31T04:01:20;6.90;;;3.80;;
77880;SDS011;67077;50.298;18.996;2023-07-31T04:03:46;7.50;;;4.50;;
77880;SDS011;67077;50.298;18.996;2023-07-31T04:06:13;8.40;;;5.60;;
77880;SDS011;67077;50.298;18.996;2023-07-31T04:08:39;10.20;;;6.50;;
77880;SDS011;67077;50.298;18.996;2023-07-31T04:11:06;10.30;;;6.80;;
77880;SDS011;67077;50.298;18.996;2023-07-31T04:13:32;10.90;;;6.70;;
77880;SDS011;67077;50.298;18.996;2023-07-31T04:16:00;12.60;;;8.10;;
77880;SDS011;67077;50.298;18.996;2023-07-31T04:18:26;9.60;;;6.30;;
77880;SDS011;67077;50.298;18.996;2023-07-31T04:20:53;10.50;;;5.50;;
77880;SDS011;67077;50.298;18.996;2023-07-31T04:23:19;8.40;;;5.40;;
77880;SDS011;67077;50.298;18.996;2023-07-31T04:25:46;12.00;;;7.00;;
77880;SDS011;67077;50.298;18.996;2023-07-31T04:28:12;17.10;;;8.20;;
77880;SDS011;67077;50.298;18.996;2023-07-31T04:30:39;24.10;;;15.90;;
77880;SDS011;67077;50.298;18.996;2023-07-31T04:33:05;19.50;;;11.50;;
77880;SDS011;67077;50.298;18.996;2023-07-31T04:35:32;15.40;;;9.80;;
77880;SDS011;67077;50.298;18.996;2023-07-31T04:37:58;14.00;;;9.10;;
77880;SDS011;67077;50.298;18.996;2023-07-31T04:40:25;14.10;;;8.90;;
77880;SDS011;67077;50.298;18.996;2023-07-31T04:42:51;14.10;;;8.90;;
77880;SDS011;67077;50.298;18.996;2023-07-31T04:45:18;13.50;;;9.30;;
77880;SDS011;67077;50.298;18.996;2023-07-31T04:47:44;11.80;;;7.80;;
77880;SDS011;67077;50.298;18.996;2023-07-31T04:50:11;11.50;;;7.20;;
77880;SDS011;67077;50.298;18.996;2023-07-31T04:52:39;13.00;;;7.60;;
77880;SDS011;67077;50.298;18.996;2023-07-31T04:55:05;14.00;;;7.80;;
77880;SDS011;67077;50.298;18.996;2023-07-31T04:57:32;13.10;;;7.70;;
77880;SDS011;67077;50.298;18.996;2023-07-31T04:59:58;16.00;;;8.90;;
77880;SDS011;67077;50.298;18.996;2023-07-31T05:02:25;13.00;;;6.80;;
77880;SDS011;67077;50.298;18.996;2023-07-31T05:04:51;16.10;;;7.90;;
77880;SDS011;67077;50.298;18.996;2023-07-31T05:07:18;12.00;;;7.10;;
77880;SDS011;67077;50.298;18.996;2023-07-31T05:09:44;12.00;;;6.00;;
77880;SDS011;67077;50.298;18.996;2023-07-31T05:12:11;8.10;;;5.30;;
77880;SDS011;67077;50.298;18.996;2023-07-31T05:14:37;10.50;;;6.10;;
77880;SDS011;67077;50.298;18.996;2023-07-31T05:17:04;10.70;;;5.40;;
77880;SDS011;67077;50.298;18.996;2023-07-31T05:19:30;8.40;;;4.40;;
77880;SDS011;67077;50.298;18.996;2023-07-31T05:21:57;11.90;;;7.40;;
77880;SDS011;67077;50.298;18.996;2023-07-31T05:24:23;17.00;;;8.90;;
77880;SDS011;67077;50.298;18.996;2023-07-31T05:26:50;12.50;;;7.70;;
77880;SDS011;67077;50.298;18.996;2023-07-31T05:29:16;9.20;;;5.00;;
77880;SDS011;67077;50.298;18.996;2023-07-31T05:31:43;10.80;;;6.30;;
77880;SDS011;67077;50.298;18.996;2023-07-31T05:34:09;9.80;;;5.50;;
77880;SDS011;67077;50.298;18.996;2023-07-31T05:36:36;11.60;;;5.60;;
77880;SDS011;67077;50.298;18.996;2023-07-31T05:39:02;12.00;;;5.10;;
77880;SDS011;67077;50.298;18.996;2023-07-31T05:41:33;11.80;;;5.20;;
77880;SDS011;67077;50.298;18.996;2023-07-31T05:43:59;9.50;;;5.60;;
77880;SDS011;67077;50.298;18.996;2023-07-31T05:46:26;9.80;;;6.20;;
77880;SDS011;67077;50.298;18.996;2023-07-31T05:48:52;9.20;;;5.90;;
77880;SDS011;67077;50.298;18.996;2023-07-31T05:51:18;8.90;;;5.10;;
77880;SDS011;67077;50.298;18.996;2023-07-31T05:53:45;10.10;;;5.00;;
77880;SDS011;67077;50.298;18.996;2023-07-31T05:56:11;8.10;;;5.80;;
77880;SDS011;67077;50.298;18.996;2023-07-31T05:58:38;9.70;;;4.90;;
77880;SDS011;67077;50.298;18.996;2023-07-31T06:01:04;5.90;;;3.40;;
77880;SDS011;67077;50.298;18.996;2023-07-31T06:03:31;10.10;;;4.90;;
77880;SDS011;67077;50.298;18.996;2023-07-31T06:05:57;9.00;;;4.90;;
77880;SDS011;67077;50.298;18.996;2023-07-31T06:08:23;11.10;;;6.50;;
77880;SDS011;67077;50.298;18.996;2023-07-31T06:10:50;11.20;;;5.50;;
77880;SDS011;67077;50.298;18.996;2023-07-31T06:13:16;9.70;;;5.60;;
77880;SDS011;67077;50.298;18.996;2023-07-31T06:15:43;12.70;;;6.30;;
77880;SDS011;67077;50.298;18.996;2023-07-31T06:18:09;12.00;;;4.80;;
77880;SDS011;67077;50.298;18.996;2023-07-31T06:20:36;9.20;;;4.10;;
77880;SDS011;67077;50.298;18.996;2023-07-31T06:23:03;10.10;;;3.80;;
77880;SDS011;67077;50.298;18.996;2023-07-31T06:25:29;6.40;;;3.60;;
77880;SDS011;67077;50.298;18.996;2023-07-31T06:27:56;7.80;;;3.50;;
77880;SDS011;67077;50.298;18.996;2023-07-31T06:30:23;6.40;;;2.80;;
77880;SDS011;67077;50.298;18.996;2023-07-31T06:32:49;6.60;;;3.20;;
77880;SDS011;67077;50.298;18.996;2023-07-31T06:35:16;4.50;;;2.80;;
77880;SDS011;67077;50.298;18.996;2023-07-31T06:37:42;5.30;;;2.60;;
77880;SDS011;67077;50.298;18.996;2023-07-31T06:40:10;8.00;;;3.00;;
77880;SDS011;67077;50.298;18.996;2023-07-31T06:42:37;9.20;;;2.80;;
77880;SDS011;67077;50.298;18.996;2023-07-31T06:45:04;5.80;;;2.70;;
77880;SDS011;67077;50.298;18.996;2023-07-31T06:47:30;5.80;;;2.40;;
77880;SDS011;67077;50.298;18.996;2023-07-31T06:49:58;8.60;;;3.00;;
77880;SDS011;67077;50.298;18.996;2023-07-31T06:52:25;5.30;;;2.50;;
77880;SDS011;67077;50.298;18.996;2023-07-31T06:55:15;6.10;;;2.70;;
77880;SDS011;67077;50.298;18.996;2023-07-31T06:57:46;6.20;;;2.50;;
77880;SDS011;67077;50.298;18.996;2023-07-31T07:00:13;7.00;;;2.50;;
77880;SDS011;67077;50.298;18.996;2023-07-31T07:02:40;5.80;;;2.70;;
77880;SDS011;67077;50.298;18.996;2023-07-31T07:05:07;6.40;;;2.60;;
77880;SDS011;67077;50.298;18.996;2023-07-31T07:07:34;6.40;;;2.60;;
77880;SDS011;67077;50.298;18.996;2023-07-31T07:10:02;7.60;;;2.60;;
77880;SDS011;67077;50.298;18.996;2023-07-31T07:12:29;7.80;;;2.80;;
77880;SDS011;67077;50.298;18.996;2023-07-31T07:14:57;9.80;;;2.80;;
77880;SDS011;67077;50.298;18.996;2023-07-31T07:17:24;5.20;;;2.60;;
77880;SDS011;67077;50.298;18.996;2023-07-31T07:19:52;9.70;;;2.70;;
77880;SDS011;67077;50.298;18.996;2023-07-31T07:22:18;4.70;;;2.50;;
77880;SDS011;67077;50.298;18.996;2023-07-31T07:24:48;4.60;;;2.70;;
77880;SDS011;67077;50.298;18.996;2023-07-31T07:27:14;6.10;;;2.50;;
77880;SDS011;67077;50.298;18.996;2023-07-31T07:29:41;6.80;;;2.70;;
77880;SDS011;67077;50.298;18.996;2023-07-31T07:32:07;5.10;;;2.50;;
77880;SDS011;67077;50.298;18.996;2023-07-31T07:34:34;6.20;;;2.90;;
77880;SDS011;67077;50.298;18.996;2023-07-31T07:37:01;5.50;;;2.80;;
77880;SDS011;67077;50.298;18.996;2023-07-31T07:39:28;6.80;;;2.50;;
77880;SDS011;67077;50.298;18.996;2023-07-31T07:41:54;4.50;;;2.40;;
77880;SDS011;67077;50.298;18.996;2023-07-31T07:44:21;7.70;;;2.60;;
77880;SDS011;67077;50.298;18.996;2023-07-31T07:46:48;5.20;;;2.60;;
77880;SDS011;67077;50.298;18.996;2023-07-31T07:49:15;6.30;;;2.20;;
77880;SDS011;67077;50.298;18.996;2023-07-31T07:51:41;9.00;;;2.40;;
77880;SDS011;67077;50.298;18.996;2023-07-31T07:54:08;4.20;;;2.10;;
77880;SDS011;67077;50.298;18.996;2023-07-31T07:56:35;6.10;;;2.40;;
77880;SDS011;67077;50.298;18.996;2023-07-31T07:59:02;5.60;;;2.50;;
77880;SDS011;67077;50.298;18.996;2023-07-31T08:01:29;6.60;;;2.20;;
77880;SDS011;67077;50.298;18.996;2023-07-31T08:03:55;5.10;;;2.40;;
77880;SDS011;67077;50.298;18.996;2023-07-31T08:06:22;6.90;;;2.30;;
77880;SDS011;67077;50.298;18.996;2023-07-31T08:08:48;5.20;;;2.20;;
77880;SDS011;67077;50.298;18.996;2023-07-31T08:11:15;8.40;;;2.10;;
77880;SDS011;67077;50.298;18.996;2023-07-31T08:13:41;5.80;;;2.50;;
77880;SDS011;67077;50.298;18.996;2023-07-31T08:16:08;7.20;;;2.40;;
77880;SDS011;67077;50.298;18.996;2023-07-31T08:18:35;8.00;;;2.40;;
77880;SDS011;67077;50.298;18.996;2023-07-31T08:21:02;7.90;;;2.40;;
77880;SDS011;67077;50.298;18.996;2023-07-31T08:23:30;4.40;;;2.30;;
77880;SDS011;67077;50.298;18.996;2023-07-31T08:25:57;6.20;;;2.40;;
77880;SDS011;67077;50.298;18.996;2023-07-31T08:28:23;7.30;;;2.50;;
77880;SDS011;67077;50.298;18.996;2023-07-31T08:30:50;5.30;;;2.20;;
77880;SDS011;67077;50.298;18.996;2023-07-31T08:33:17;9.10;;;2.40;;
77880;SDS011;67077;50.298;18.996;2023-07-31T08:35:43;8.40;;;2.30;;
77880;SDS011;67077;50.298;18.996;2023-07-31T08:38:13;4.80;;;2.20;;
77880;SDS011;67077;50.298;18.996;2023-07-31T08:40:39;4.00;;;2.10;;
77880;SDS011;67077;50.298;18.996;2023-07-31T08:43:06;4.60;;;2.10;;
77880;SDS011;67077;50.298;18.996;2023-07-31T08:45:36;7.20;;;2.50;;
77880;SDS011;67077;50.298;18.996;2023-07-31T08:48:03;6.30;;;2.30;;
77880;SDS011;67077;50.298;18.996;2023-07-31T08:50:30;4.50;;;2.10;;
77880;SDS011;67077;50.298;18.996;2023-07-31T08:52:57;4.70;;;1.90;;
77880;SDS011;67077;50.298;18.996;2023-07-31T08:55:23;5.20;;;2.00;;
77880;SDS011;67077;50.298;18.996;2023-07-31T08:57:51;6.20;;;2.10;;
77880;SDS011;67077;50.298;18.996;2023-07-31T09:00:19;5.00;;;2.20;;
77880;SDS011;67077;50.298;18.996;2023-07-31T09:05:23;3.90;;;1.80;;
77880;SDS011;67077;50.298;18.996;2023-07-31T09:07:50;5.50;;;2.10;;
77880;SDS011;67077;50.298;18.996;2023-07-31T09:10:17;4.10;;;1.80;;
77880;SDS011;67077;50.298;18.996;2023-07-31T09:12:44;6.10;;;1.90;;
77880;SDS011;67077;50.298;18.996;2023-07-31T09:15:12;4.80;;;1.90;;
77880;SDS011;67077;50.298;18.996;2023-07-31T09:17:38;3.80;;;2.10;;
77880;SDS011;67077;50.298;18.996;2023-07-31T09:20:26;4.50;;;2.20;;
77880;SDS011;67077;50.298;18.996;2023-07-31T09:22:52;4.00;;;2.20;;
77880;SDS011;67077;50.298;18.996;2023-07-31T09:25:25;2.40;;;1.80;;
77880;SDS011;67077;50.298;18.996;2023-07-31T09:28:02;2.90;;;1.80;;
77880;SDS011;67077;50.298;18.996;2023-07-31T09:30:30;3.70;;;1.80;;
77880;SDS011;67077;50.298;18.996;2023-07-31T09:33:09;3.50;;;1.80;;
77880;SDS011;67077;50.298;18.996;2023-07-31T09:35:36;3.60;;;1.70;;
77880;SDS011;67077;50.298;18.996;2023-07-31T09:38:05;4.20;;;1.80;;
77880;SDS011;67077;50.298;18.996;2023-07-31T09:40:34;3.30;;;1.80;;
77880;SDS011;67077;50.298;18.996;2023-07-31T09:43:03;4.30;;;1.70;;
77880;SDS011;67077;50.298;18.996;2023-07-31T09:45:33;3.70;;;2.00;;
77880;SDS011;67077;50.298;18.996;2023-07-31T09:48:06;4.90;;;1.80;;
77880;SDS011;67077;50.298;18.996;2023-07-31T09:50:38;5.50;;;1.80;;
77880;SDS011;67077;50.298;18.996;2023-07-31T09:53:06;4.10;;;1.70;;
77880;SDS011;67077;50.298;18.996;2023-07-31T09:55:33;5.60;;;1.90;;
77880;SDS011;67077;50.298;18.996;2023-07-31T09:58:04;3.60;;;1.80;;
77880;SDS011;67077;50.298;18.996;2023-07-31T10:00:35;5.00;;;1.60;;
77880;SDS011;67077;50.298;18.996;2023-07-31T10:03:09;2.60;;;1.60;;
77880;SDS011;67077;50.298;18.996;2023-07-31T10:05:46;2.80;;;1.60;;
77880;SDS011;67077;50.298;18.996;2023-07-31T10:08:18;3.80;;;1.60;;
77880;SDS011;67077;50.298;18.996;2023-07-31T10:10:48;5.60;;;1.70;;
77880;SDS011;67077;50.298;18.996;2023-07-31T10:13:15;2.60;;;1.70;;
77880;SDS011;67077;50.298;18.996;2023-07-31T10:15:43;2.60;;;1.60;;
77880;SDS011;67077;50.298;18.996;2023-07-31T10:18:11;5.30;;;1.80;;
77880;SDS011;67077;50.298;18.996;2023-07-31T10:20:49;3.80;;;2.10;;
77880;SDS011;67077;50.298;18.996;2023-07-31T10:28:01;3.90;;;1.60;;
77880;SDS011;67077;50.298;18.996;2023-07-31T10:30:30;3.50;;;1.60;;
77880;SDS011;67077;50.298;18.996;2023-07-31T10:33:02;4.50;;;1.70;;
77880;SDS011;67077;50.298;18.996;2023-07-31T10:45:43;3.90;;;1.60;;
77880;SDS011;67077;50.298;18.996;2023-07-31T10:48:16;4.00;;;1.60;;
77880;SDS011;67077;50.298;18.996;2023-07-31T10:50:55;5.90;;;2.10;;
77880;SDS011;67077;50.298;18.996;2023-07-31T10:55:58;3.70;;;1.90;;
77880;SDS011;67077;50.298;18.996;2023-07-31T10:58:27;2.80;;;1.40;;
77880;SDS011;67077;50.298;18.996;2023-07-31T11:01:00;3.40;;;1.60;;
77880;SDS011;67077;50.298;18.996;2023-07-31T11:03:41;6.10;;;1.90;;
77880;SDS011;67077;50.298;18.996;2023-07-31T11:06:12;4.90;;;1.80;;
77880;SDS011;67077;50.298;18.996;2023-07-31T11:08:41;5.10;;;1.70;;
77880;SDS011;67077;50.298;18.996;2023-07-31T11:11:15;4.40;;;2.00;;
77880;SDS011;67077;50.298;18.996;2023-07-31T11:13:52;4.60;;;1.70;;
77880;SDS011;67077;50.298;18.996;2023-07-31T11:16:22;4.60;;;2.00;;
77880;SDS011;67077;50.298;18.996;2023-07-31T11:18:51;4.40;;;1.90;;
77880;SDS011;67077;50.298;18.996;2023-07-31T11:21:20;6.40;;;2.00;;
77880;SDS011;67077;50.298;18.996;2023-07-31T11:23:55;5.50;;;1.80;;
77880;SDS011;67077;50.298;18.996;2023-07-31T11:26:23;3.20;;;1.50;;
77880;SDS011;67077;50.298;18.996;2023-07-31T11:28:51;4.10;;;1.80;;
77880;SDS011;67077;50.298;18.996;2023-07-31T11:31:18;4.40;;;1.80;;
77880;SDS011;67077;50.298;18.996;2023-07-31T11:33:45;5.40;;;1.80;;
77880;SDS011;67077;50.298;18.996;2023-07-31T11:36:19;6.40;;;2.00;;
77880;SDS011;67077;50.298;18.996;2023-07-31T11:38:47;4.40;;;1.90;;
77880;SDS011;67077;50.298;18.996;2023-07-31T11:44:04;3.90;;;1.80;;
77880;SDS011;67077;50.298;18.996;2023-07-31T11:46:31;4.40;;;1.80;;
77880;SDS011;67077;50.298;18.996;2023-07-31T11:48:59;2.80;;;1.50;;
77880;SDS011;67077;50.298;18.996;2023-07-31T11:51:27;3.50;;;1.80;;
77880;SDS011;67077;50.298;18.996;2023-07-31T11:53:57;3.30;;;1.70;;
77880;SDS011;67077;50.298;18.996;2023-07-31T11:56:28;5.40;;;2.10;;
77880;SDS011;67077;50.298;18.996;2023-07-31T11:58:57;4.90;;;1.60;;
77880;SDS011;67077;50.298;18.996;2023-07-31T12:01:32;4.00;;;1.50;;
77880;SDS011;67077;50.298;18.996;2023-07-31T12:03:59;4.10;;;2.00;;
77880;SDS011;67077;50.298;18.996;2023-07-31T12:06:33;4.60;;;1.70;;
77880;SDS011;67077;50.298;18.996;2023-07-31T12:09:05;3.60;;;1.90;;
77880;SDS011;67077;50.298;18.996;2023-07-31T12:11:42;4.30;;;1.70;;
77880;SDS011;67077;50.298;18.996;2023-07-31T12:17:06;3.70;;;1.90;;
77880;SDS011;67077;50.298;18.996;2023-07-31T12:19:33;4.00;;;1.90;;
77880;SDS011;67077;50.298;18.996;2023-07-31T12:22:02;2.50;;;1.60;;
77880;SDS011;67077;50.298;18.996;2023-07-31T12:24:39;4.20;;;1.80;;
77880;SDS011;67077;50.298;18.996;2023-07-31T12:27:11;3.90;;;1.70;;
77880;SDS011;67077;50.298;18.996;2023-07-31T12:32:21;2.30;;;1.70;;
77880;SDS011;67077;50.298;18.996;2023-07-31T12:34:59;3.40;;;1.70;;
77880;SDS011;67077;50.298;18.996;2023-07-31T12:37:29;3.50;;;1.70;;
77880;SDS011;67077;50.298;18.996;2023-07-31T12:39:58;8.40;;;1.90;;
77880;SDS011;67077;50.298;18.996;2023-07-31T12:44:57;4.70;;;1.80;;
77880;SDS011;67077;50.298;18.996;2023-07-31T12:47:25;5.10;;;1.70;;
77880;SDS011;67077;50.298;18.996;2023-07-31T12:50:02;4.90;;;2.10;;
77880;SDS011;67077;50.298;18.996;2023-07-31T12:52:48;6.20;;;1.70;;
77880;SDS011;67077;50.298;18.996;2023-07-31T12:55:30;2.70;;;1.70;;
77880;SDS011;67077;50.298;18.996;2023-07-31T12:57:58;3.80;;;1.60;;
77880;SDS011;67077;50.298;18.996;2023-07-31T13:00:25;3.60;;;1.40;;
77880;SDS011;67077;50.298;18.996;2023-07-31T13:02:53;2.40;;;1.30;;
77880;SDS011;67077;50.298;18.996;2023-07-31T13:05:20;5.30;;;1.80;;
77880;SDS011;67077;50.298;18.996;2023-07-31T13:07:47;3.70;;;1.80;;
77880;SDS011;67077;50.298;18.996;2023-07-31T13:10:15;4.40;;;1.70;;
77880;SDS011;67077;50.298;18.996;2023-07-31T13:12:42;3.70;;;1.50;;
77880;SDS011;67077;50.298;18.996;2023-07-31T13:15:08;6.60;;;2.00;;
77880;SDS011;67077;50.298;18.996;2023-07-31T13:17:35;5.70;;;1.60;;
77880;SDS011;67077;50.298;18.996;2023-07-31T13:20:03;5.30;;;1.50;;
77880;SDS011;67077;50.298;18.996;2023-07-31T13:22:29;4.00;;;1.80;;
77880;SDS011;67077;50.298;18.996;2023-07-31T13:24:57;2.90;;;1.50;;
77880;SDS011;67077;50.298;18.996;2023-07-31T13:27:23;3.00;;;1.70;;
77880;SDS011;67077;50.298;18.996;2023-07-31T13:29:50;5.40;;;1.80;;
77880;SDS011;67077;50.298;18.996;2023-07-31T13:32:19;6.20;;;1.70;;
77880;SDS011;67077;50.298;18.996;2023-07-31T13:34:47;3.70;;;1.60;;
77880;SDS011;67077;50.298;18.996;2023-07-31T13:37:15;3.00;;;1.60;;
77880;SDS011;67077;50.298;18.996;2023-07-31T13:39:41;8.80;;;2.90;;
77880;SDS011;67077;50.298;18.996;2023-07-31T13:42:09;4.00;;;2.00;;
77880;SDS011;67077;50.298;18.996;2023-07-31T13:44:38;5.60;;;2.10;;
77880;SDS011;67077;50.298;18.996;2023-07-31T13:47:11;4.90;;;1.80;;
77880;SDS011;67077;50.298;18.996;2023-07-31T13:49:40;12.30;;;2.10;;
77880;SDS011;67077;50.298;18.996;2023-07-31T13:52:10;3.10;;;1.80;;
77880;SDS011;67077;50.298;18.996;2023-07-31T13:54:37;3.00;;;1.70;;
77880;SDS011;67077;50.298;18.996;2023-07-31T13:57:04;4.40;;;2.00;;
77880;SDS011;67077;50.298;18.996;2023-07-31T13:59:32;8.40;;;2.00;;
77880;SDS011;67077;50.298;18.996;2023-07-31T14:02:04;3.60;;;2.00;;
77880;SDS011;67077;50.298;18.996;2023-07-31T14:04:31;7.60;;;2.00;;
77880;SDS011;67077;50.298;18.996;2023-07-31T14:06:58;4.30;;;1.90;;
77880;SDS011;67077;50.298;18.996;2023-07-31T14:09:25;6.70;;;1.80;;
77880;SDS011;67077;50.298;18.996;2023-07-31T14:11:55;5.10;;;2.10;;
77880;SDS011;67077;50.298;18.996;2023-07-31T14:14:21;5.30;;;2.10;;
77880;SDS011;67077;50.298;18.996;2023-07-31T14:16:48;7.20;;;1.90;;
77880;SDS011;67077;50.298;18.996;2023-07-31T14:19:14;6.00;;;1.80;;
77880;SDS011;67077;50.298;18.996;2023-07-31T14:21:41;3.80;;;1.70;;
77880;SDS011;67077;50.298;18.996;2023-07-31T14:24:08;3.00;;;1.60;;
77880;SDS011;67077;50.298;18.996;2023-07-31T14:26:35;5.30;;;1.70;;
77880;SDS011;67077;50.298;18.996;2023-07-31T14:29:01;3.50;;;1.80;;
77880;SDS011;67077;50.298;18.996;2023-07-31T14:31:28;4.20;;;1.90;;
77880;SDS011;67077;50.298;18.996;2023-07-31T14:33:54;8.60;;;2.00;;
77880;SDS011;67077;50.298;18.996;2023-07-31T14:36:21;4.60;;;1.80;;
77880;SDS011;67077;50.298;18.996;2023-07-31T14:38:48;6.00;;;1.80;;
77880;SDS011;67077;50.298;18.996;2023-07-31T14:43:46;4.00;;;1.60;;
77880;SDS011;67077;50.298;18.996;2023-07-31T14:46:13;6.40;;;1.80;;
77880;SDS011;67077;50.298;18.996;2023-07-31T14:48:40;3.30;;;1.50;;
77880;SDS011;67077;50.298;18.996;2023-07-31T14:51:07;3.70;;;1.70;;
77880;SDS011;67077;50.298;18.996;2023-07-31T14:53:34;3.20;;;1.60;;
77880;SDS011;67077;50.298;18.996;2023-07-31T14:56:00;3.60;;;1.70;;
77880;SDS011;67077;50.298;18.996;2023-07-31T14:58:27;3.50;;;1.80;;
77880;SDS011;67077;50.298;18.996;2023-07-31T15:00:54;4.30;;;1.60;;
77880;SDS011;67077;50.298;18.996;2023-07-31T15:03:20;3.00;;;1.60;;
77880;SDS011;67077;50.298;18.996;2023-07-31T15:05:47;4.70;;;1.60;;
77880;SDS011;67077;50.298;18.996;2023-07-31T15:08:14;5.80;;;1.70;;
77880;SDS011;67077;50.298;18.996;2023-07-31T15:10:40;4.40;;;1.90;;
77880;SDS011;67077;50.298;18.996;2023-07-31T15:13:13;3.80;;;1.70;;
77880;SDS011;67077;50.298;18.996;2023-07-31T15:15:40;4.00;;;1.70;;